Tucson, AZ (85704)

4:07 AM MST on July 28, 2016 (GMT -0700)
Casas Adobes | | Change Station

Elev 2400 ft 32.33 °N, 111.00 °W | Updated 10 seconds ago

Light Drizzle
Light Drizzle
72.3 °F
Feels Like 73 °F
N
2.7
Wind Variable Wind from SW
Gusts 2.7 mph

Today
High -- | Low -- °F
--% Chance of Precip.
Yesterday
High -- | Low -- °F
Precip. -- in
Pressure 29.88 in
Visibility 10.0 miles
Clouds Mostly Cloudy 11000 ft
Mostly Cloudy 13000 ft
Heat Index 73 °F
Dew Point 65 °F
Humidity 79%
Rainfall 0.39 in
Snow Depth Not available.
5:36 AM 7:24 PM
Waning Crescent, 33% visible
METAR KDMA 281058Z AUTO 06012KT 10SM -DZ BKN110 BKN130 25/19 A3002 RMK AO2 LTG DSNT NE AND SW-W DZE26DZB29 SLP116 P0000 T02500189 $
Pressure 29.88 in
Visibility 10.0 miles
Clouds Mostly Cloudy 11000 ft
Mostly Cloudy 13000 ft
Heat Index 73 °F
Dew Point 65 °F
Humidity 79%
Rainfall 0.39 in
Snow Depth Not available.
5:36 AM 7:24 PM
Waning Crescent, 33% visible
METAR KDMA 281058Z AUTO 06012KT 10SM -DZ BKN110 BKN130 25/19 A3002 RMK AO2 LTG DSNT NE AND SW-W DZE26DZB29 SLP116 P0000 T02500189 $

10-Day Weather Forecast

Almanac

Astronomy

Jul. 28, 2016 Rise Set
Actual Time
Civil Twilight
Nautical Twilight
Astronomical Twilight
Moon
Length of Visible Light
Length of Day
Tomorrow will be .
, % of the Moon is Illuminated

Today's Extremes

State Highs State Lows

Community

WunderPhotos

Upload Photos

1,928,082 photos uploaded!

WunderBlog® & News

Nearby

Air Quality

  Air Quality AQ Index Pollutant
Not available.

Snow Depth

Station Depth Elevation

Earthquake Activity

City Distance Mag. Time & Date
Minimum magnitude displayed is 2.5.

Coastal Water Temperatures

Place Temperature

Stations

Nearby Weather Stations

Station Location Temp. Windchill Dew Point Humidity Wind Precip. Elev Updated Type
                   

Watches & Warnings

There are currently no watches in effect.